sensor_id;sensor_type;location;lat;lon;timestamp;pressure;altitude;pressure_sealevel;temperature;humidity
55347;BME280;41218;55.700;38.270;2022-12-07T00:00:03;101153.09;;;-9.43;65.95
55347;BME280;41218;55.700;38.270;2022-12-07T00:05:04;101141.97;;;-9.54;66.02
55347;BME280;41218;55.700;38.270;2022-12-07T00:10:05;101152.28;;;-9.51;65.96
55347;BME280;41218;55.700;38.270;2022-12-07T00:15:08;101151.03;;;-9.55;65.83
55347;BME280;41218;55.700;38.270;2022-12-07T00:20:08;101139.28;;;-9.54;66.06
55347;BME280;41218;55.700;38.270;2022-12-07T00:25:09;101143.19;;;-9.56;66.26
55347;BME280;41218;55.700;38.270;2022-12-07T00:30:10;101142.38;;;-9.57;66.31
55347;BME280;41218;55.700;38.270;2022-12-07T00:35:10;101146.06;;;-9.58;66.22
55347;BME280;41218;55.700;38.270;2022-12-07T00:40:11;101138.22;;;-9.59;66.39
55347;BME280;41218;55.700;38.270;2022-12-07T00:45:11;101150.59;;;-9.58;66.45
55347;BME280;41218;55.700;38.270;2022-12-07T00:50:12;101143.56;;;-9.66;66.34
55347;BME280;41218;55.700;38.270;2022-12-07T00:55:12;101147.88;;;-9.65;66.17
55347;BME280;41218;55.700;38.270;2022-12-07T01:00:13;101136.34;;;-9.72;66.22
55347;BME280;41218;55.700;38.270;2022-12-07T01:05:14;101149.75;;;-9.72;66.17
55347;BME280;41218;55.700;38.270;2022-12-07T01:10:14;101146.03;;;-9.71;66.56
55347;BME280;41218;55.700;38.270;2022-12-07T01:15:15;101154.47;;;-9.74;66.41
55347;BME280;41218;55.700;38.270;2022-12-07T01:20:15;101143.53;;;-9.79;66.02
55347;BME280;41218;55.700;38.270;2022-12-07T01:25:16;101149.13;;;-9.74;66.48
55347;BME280;41218;55.700;38.270;2022-12-07T01:30:17;101146.63;;;-9.76;66.20
55347;BME280;41218;55.700;38.270;2022-12-07T01:35:17;101134.25;;;-9.83;66.05
55347;BME280;41218;55.700;38.270;2022-12-07T01:40:18;101149.72;;;-9.79;66.13
55347;BME280;41218;55.700;38.270;2022-12-07T01:50:20;101136.13;;;-9.84;66.19
55347;BME280;41218;55.700;38.270;2022-12-07T01:55:22;101136.13;;;-9.84;66.29
55347;BME280;41218;55.700;38.270;2022-12-07T02:00:22;101139.22;;;-9.87;66.51
55347;BME280;41218;55.700;38.270;2022-12-07T02:05:24;101137.53;;;-9.88;66.41
55347;BME280;41218;55.700;38.270;2022-12-07T02:10:26;101125.41;;;-9.91;66.44
55347;BME280;41218;55.700;38.270;2022-12-07T02:21:20;101126.59;;;-10.00;66.22
55347;BME280;41218;55.700;38.270;2022-12-07T02:32:23;101120.41;;;-10.07;66.37
55347;BME280;41218;55.700;38.270;2022-12-07T02:38:01;101125.75;;;-10.07;66.34
55347;BME280;41218;55.700;38.270;2022-12-07T02:43:30;101121.41;;;-10.08;66.45
55347;BME280;41218;55.700;38.270;2022-12-07T02:48:34;101113.19;;;-10.13;66.60
55347;BME280;41218;55.700;38.270;2022-12-07T03:09:37;101109.44;;;-10.19;66.83
55347;BME280;41218;55.700;38.270;2022-12-07T03:14:47;101112.50;;;-10.22;66.24
55347;BME280;41218;55.700;38.270;2022-12-07T03:19:53;101117.03;;;-10.29;66.34
55347;BME280;41218;55.700;38.270;2022-12-07T03:24:58;101110.66;;;-10.35;66.13
55347;BME280;41218;55.700;38.270;2022-12-07T03:35:10;101108.56;;;-10.46;66.09
55347;BME280;41218;55.700;38.270;2022-12-07T03:45:20;101106.44;;;-10.51;66.65
55347;BME280;41218;55.700;38.270;2022-12-07T03:50:45;101109.91;;;-10.57;66.32
55347;BME280;41218;55.700;38.270;2022-12-07T03:55:49;101098.75;;;-10.67;66.35
55347;BME280;41218;55.700;38.270;2022-12-07T04:00:51;101106.78;;;-10.67;66.69
55347;BME280;41218;55.700;38.270;2022-12-07T04:05:53;101108.81;;;-10.69;66.31
55347;BME280;41218;55.700;38.270;2022-12-07T04:10:54;101103.03;;;-10.73;66.60
55347;BME280;41218;55.700;38.270;2022-12-07T04:15:54;101102.41;;;-10.75;66.84
55347;BME280;41218;55.700;38.270;2022-12-07T04:20:54;101108.97;;;-10.77;66.66
55347;BME280;41218;55.700;38.270;2022-12-07T04:25:55;101100.91;;;-10.84;66.28
55347;BME280;41218;55.700;38.270;2022-12-07T04:30:55;101099.47;;;-10.86;66.61
55347;BME280;41218;55.700;38.270;2022-12-07T04:35:56;101097.38;;;-10.91;66.60
55347;BME280;41218;55.700;38.270;2022-12-07T04:40:56;101103.56;;;-10.91;66.82
55347;BME280;41218;55.700;38.270;2022-12-07T04:45:57;101093.44;;;-10.95;66.46
55347;BME280;41218;55.700;38.270;2022-12-07T04:50:57;101091.59;;;-10.95;66.80
55347;BME280;41218;55.700;38.270;2022-12-07T04:55:58;101093.63;;;-10.97;66.81
55347;BME280;41218;55.700;38.270;2022-12-07T05:00:58;101086.84;;;-10.99;66.86
55347;BME280;41218;55.700;38.270;2022-12-07T05:05:59;101098.97;;;-10.97;66.44
55347;BME280;41218;55.700;38.270;2022-12-07T05:11:00;101103.50;;;-10.97;66.88
55347;BME280;41218;55.700;38.270;2022-12-07T05:16:01;101104.31;;;-10.97;66.66
55347;BME280;41218;55.700;38.270;2022-12-07T05:21:02;101102.47;;;-10.96;66.54
55347;BME280;41218;55.700;38.270;2022-12-07T05:26:02;101100.63;;;-10.96;66.67
55347;BME280;41218;55.700;38.270;2022-12-07T05:31:03;101083.94;;;-11.04;66.66
55347;BME280;41218;55.700;38.270;2022-12-07T05:36:04;101098.97;;;-10.97;66.68
55347;BME280;41218;55.700;38.270;2022-12-07T05:41:06;101101.25;;;-10.94;66.79
55347;BME280;41218;55.700;38.270;2022-12-07T05:46:07;101092.63;;;-10.96;66.41
55347;BME280;41218;55.700;38.270;2022-12-07T05:51:08;101096.09;;;-10.95;66.52
55347;BME280;41218;55.700;38.270;2022-12-07T05:56:08;101101.44;;;-10.95;66.56
55347;BME280;41218;55.700;38.270;2022-12-07T06:01:09;101095.28;;;-10.96;66.65
55347;BME280;41218;55.700;38.270;2022-12-07T06:06:09;101093.84;;;-10.98;66.82
55347;BME280;41218;55.700;38.270;2022-12-07T06:11:10;101084.31;;;-11.07;66.73
55347;BME280;41218;55.700;38.270;2022-12-07T06:16:29;101096.06;;;-11.02;66.87
55347;BME280;41218;55.700;38.270;2022-12-07T06:21:29;101099.59;;;-10.95;67.06
55347;BME280;41218;55.700;38.270;2022-12-07T06:26:30;101102.25;;;-10.95;66.78
55347;BME280;41218;55.700;38.270;2022-12-07T06:31:31;101100.25;;;-10.93;66.42
55347;BME280;41218;55.700;38.270;2022-12-07T06:36:32;101093.06;;;-10.92;66.72
55347;BME280;41218;55.700;38.270;2022-12-07T06:41:32;101081.78;;;-10.88;66.92
55347;BME280;41218;55.700;38.270;2022-12-07T06:46:33;101072.94;;;-10.88;66.67
55347;BME280;41218;55.700;38.270;2022-12-07T06:51:35;101082.44;;;-10.79;66.85
55347;BME280;41218;55.700;38.270;2022-12-07T06:56:37;101082.44;;;-10.79;66.94
55347;BME280;41218;55.700;38.270;2022-12-07T07:01:37;101086.59;;;-10.76;66.92
55347;BME280;41218;55.700;38.270;2022-12-07T07:06:38;101081.03;;;-10.75;66.78
55347;BME280;41218;55.700;38.270;2022-12-07T07:11:38;101089.91;;;-10.68;67.02
55347;BME280;41218;55.700;38.270;2022-12-07T07:16:39;101092.63;;;-10.61;66.98
55347;BME280;41218;55.700;38.270;2022-12-07T07:21:39;101077.22;;;-10.59;67.07
55347;BME280;41218;55.700;38.270;2022-12-07T07:26:40;101085.06;;;-10.51;67.57
55347;BME280;41218;55.700;38.270;2022-12-07T07:31:40;101079.78;;;-10.44;67.89
55347;BME280;41218;55.700;38.270;2022-12-07T07:36:41;101084.94;;;-10.36;67.52
55347;BME280;41218;55.700;38.270;2022-12-07T07:41:41;101079.81;;;-10.31;67.77
55347;BME280;41218;55.700;38.270;2022-12-07T07:46:42;101076.31;;;-10.24;67.55
55347;BME280;41218;55.700;38.270;2022-12-07T07:51:42;101073.25;;;-10.21;67.66
55347;BME280;41218;55.700;38.270;2022-12-07T07:56:43;101072.03;;;-10.12;67.53
55347;BME280;41218;55.700;38.270;2022-12-07T08:01:43;101074.34;;;-10.02;67.51
55347;BME280;41218;55.700;38.270;2022-12-07T08:06:43;101076.19;;;-9.96;67.37
55347;BME280;41218;55.700;38.270;2022-12-07T08:11:44;101075.38;;;-9.90;67.34
55347;BME280;41218;55.700;38.270;2022-12-07T08:16:45;101080.13;;;-9.85;67.33
55347;BME280;41218;55.700;38.270;2022-12-07T08:21:46;101069.47;;;-9.79;67.27
55347;BME280;41218;55.700;38.270;2022-12-07T08:26:46;101057.91;;;-9.79;67.48
55347;BME280;41218;55.700;38.270;2022-12-07T08:31:47;101068.84;;;-9.68;67.23
55347;BME280;41218;55.700;38.270;2022-12-07T08:36:47;101068.22;;;-9.63;67.11
55347;BME280;41218;55.700;38.270;2022-12-07T08:41:48;101064.75;;;-9.57;67.25
55347;BME280;41218;55.700;38.270;2022-12-07T08:46:53;101059.19;;;-9.49;67.19
55347;BME280;41218;55.700;38.270;2022-12-07T08:51:55;101058.78;;;-9.45;66.94
55347;BME280;41218;55.700;38.270;2022-12-07T08:56:56;101048.88;;;-9.45;66.93
55347;BME280;41218;55.700;38.270;2022-12-07T09:01:57;101047.84;;;-9.37;66.94
55347;BME280;41218;55.700;38.270;2022-12-07T09:06:57;101053.00;;;-9.29;66.77
55347;BME280;41218;55.700;38.270;2022-12-07T09:11:58;101041.28;;;-9.28;66.43
55347;BME280;41218;55.700;38.270;2022-12-07T09:17:07;101039.00;;;-9.18;66.97
55347;BME280;41218;55.700;38.270;2022-12-07T09:22:08;101022.50;;;-9.15;67.00
55347;BME280;41218;55.700;38.270;2022-12-07T09:27:09;101029.50;;;-9.07;66.81
55347;BME280;41218;55.700;38.270;2022-12-07T09:32:09;101017.53;;;-9.04;66.62
55347;BME280;41218;55.700;38.270;2022-12-07T09:37:10;101016.69;;;-8.98;66.68
55347;BME280;41218;55.700;38.270;2022-12-07T09:42:41;101016.50;;;-8.97;66.50
55347;BME280;41218;55.700;38.270;2022-12-07T09:47:45;100999.81;;;-8.99;65.86
55347;BME280;41218;55.700;38.270;2022-12-07T09:52:47;101008.06;;;-8.94;66.39
55347;BME280;41218;55.700;38.270;2022-12-07T09:57:48;100996.91;;;-8.91;66.12
55347;BME280;41218;55.700;38.270;2022-12-07T10:02:59;100983.28;;;-8.82;66.42
55347;BME280;41218;55.700;38.270;2022-12-07T10:08:00;100982.25;;;-8.81;65.86
55347;BME280;41218;55.700;38.270;2022-12-07T10:13:04;100981.41;;;-8.75;66.33
55347;BME280;41218;55.700;38.270;2022-12-07T10:23:20;100981.38;;;-8.69;65.78
55347;BME280;41218;55.700;38.270;2022-12-07T10:28:20;100987.53;;;-8.61;66.39
55347;BME280;41218;55.700;38.270;2022-12-07T10:33:31;100980.31;;;-8.61;65.75
55347;BME280;41218;55.700;38.270;2022-12-07T10:38:32;100972.69;;;-8.64;65.66
55347;BME280;41218;55.700;38.270;2022-12-07T10:43:32;100969.38;;;-8.59;65.95
55347;BME280;41218;55.700;38.270;2022-12-07T11:11:23;100946.06;;;-8.59;65.31
55347;BME280;41218;55.700;38.270;2022-12-07T11:37:30;100925.28;;;-8.63;65.72
55347;BME280;41218;55.700;38.270;2022-12-07T11:42:37;100916.78;;;-8.60;64.94
55347;BME280;41218;55.700;38.270;2022-12-07T11:47:54;100925.44;;;-8.58;65.86
55347;BME280;41218;55.700;38.270;2022-12-07T12:03:34;100901.97;;;-8.63;65.46
55347;BME280;41218;55.700;38.270;2022-12-07T12:08:42;100897.63;;;-8.64;65.28
55347;BME280;41218;55.700;38.270;2022-12-07T12:19:22;100889.63;;;-8.71;65.85
55347;BME280;41218;55.700;38.270;2022-12-07T12:24:26;100887.00;;;-8.77;65.62
55347;BME280;41218;55.700;38.270;2022-12-07T12:29:34;100885.13;;;-8.77;65.70
55347;BME280;41218;55.700;38.270;2022-12-07T12:50:21;100881.69;;;-8.91;65.70
55347;BME280;41218;55.700;38.270;2022-12-07T12:55:43;100867.94;;;-9.01;65.36
55347;BME280;41218;55.700;38.270;2022-12-07T13:00:48;100875.94;;;-8.94;65.63
55347;BME280;41218;55.700;38.270;2022-12-07T13:06:20;100868.78;;;-9.07;65.04
55347;BME280;41218;55.700;38.270;2022-12-07T13:11:41;100880.31;;;-9.07;65.68
55347;BME280;41218;55.700;38.270;2022-12-07T13:16:44;100875.41;;;-9.10;65.41
55347;BME280;41218;55.700;38.270;2022-12-07T13:21:44;100873.72;;;-9.11;65.29
55347;BME280;41218;55.700;38.270;2022-12-07T13:26:45;100874.59;;;-9.17;65.57
55347;BME280;41218;55.700;38.270;2022-12-07T13:31:46;100867.00;;;-9.20;65.60
55347;BME280;41218;55.700;38.270;2022-12-07T13:36:48;100850.97;;;-9.33;65.24
55347;BME280;41218;55.700;38.270;2022-12-07T13:41:52;100863.69;;;-9.29;65.33
55347;BME280;41218;55.700;38.270;2022-12-07T13:47:23;100870.72;;;-9.28;65.74
55347;BME280;41218;55.700;38.270;2022-12-07T13:52:31;100870.50;;;-9.33;65.75
55347;BME280;41218;55.700;38.270;2022-12-07T13:57:33;100854.88;;;-9.36;65.47
55347;BME280;41218;55.700;38.270;2022-12-07T14:02:35;100872.81;;;-9.36;65.60
55347;BME280;41218;55.700;38.270;2022-12-07T14:07:54;100862.91;;;-9.36;65.37
55347;BME280;41218;55.700;38.270;2022-12-07T14:12:57;100849.13;;;-9.39;65.60
55347;BME280;41218;55.700;38.270;2022-12-07T14:17:59;100850.19;;;-9.40;65.35
55347;BME280;41218;55.700;38.270;2022-12-07T14:23:04;100852.00;;;-9.41;65.58
55347;BME280;41218;55.700;38.270;2022-12-07T14:28:31;100838.63;;;-9.41;65.71
55347;BME280;41218;55.700;38.270;2022-12-07T14:33:32;100847.69;;;-9.42;65.40
55347;BME280;41218;55.700;38.270;2022-12-07T14:38:32;100843.78;;;-9.39;65.67
55347;BME280;41218;55.700;38.270;2022-12-07T14:43:33;100835.16;;;-9.48;65.72
55347;BME280;41218;55.700;38.270;2022-12-07T14:48:35;100835.97;;;-9.48;65.83
55347;BME280;41218;55.700;38.270;2022-12-07T14:53:36;100851.63;;;-9.44;65.64
55347;BME280;41218;55.700;38.270;2022-12-07T14:58:40;100831.88;;;-9.50;65.86
55347;BME280;41218;55.700;38.270;2022-12-07T15:03:40;100826.13;;;-9.54;65.31
55347;BME280;41218;55.700;38.270;2022-12-07T15:08:41;100834.34;;;-9.55;65.99
55347;BME280;41218;55.700;38.270;2022-12-07T15:13:41;100828.22;;;-9.62;66.06
55347;BME280;41218;55.700;38.270;2022-12-07T15:19:00;100817.09;;;-9.66;65.62
55347;BME280;41218;55.700;38.270;2022-12-07T15:24:01;100821.81;;;-9.61;65.88
55347;BME280;41218;55.700;38.270;2022-12-07T15:29:02;100799.41;;;-9.74;66.04
55347;BME280;41218;55.700;38.270;2022-12-07T15:34:02;100809.88;;;-9.65;65.92
55347;BME280;41218;55.700;38.270;2022-12-07T15:39:03;100806.63;;;-9.74;65.76
55347;BME280;41218;55.700;38.270;2022-12-07T15:44:04;100819.16;;;-9.68;65.92
55347;BME280;41218;55.700;38.270;2022-12-07T15:49:23;100807.25;;;-9.79;66.11
55347;BME280;41218;55.700;38.270;2022-12-07T15:54:27;100817.50;;;-9.69;66.19
55347;BME280;41218;55.700;38.270;2022-12-07T15:59:28;100808.06;;;-9.78;66.15
55347;BME280;41218;55.700;38.270;2022-12-07T16:04:29;100813.59;;;-9.73;66.02
55347;BME280;41218;55.700;38.270;2022-12-07T16:09:29;100810.31;;;-9.69;66.38
55347;BME280;41218;55.700;38.270;2022-12-07T16:14:30;100793.03;;;-9.73;66.41
55347;BME280;41218;55.700;38.270;2022-12-07T16:19:34;100801.44;;;-9.69;66.02
55347;BME280;41218;55.700;38.270;2022-12-07T16:24:34;100788.09;;;-9.76;66.08
55347;BME280;41218;55.700;38.270;2022-12-07T16:29:35;100794.88;;;-9.67;66.19
55347;BME280;41218;55.700;38.270;2022-12-07T16:34:35;100788.91;;;-9.75;66.35
55347;BME280;41218;55.700;38.270;2022-12-07T16:39:36;100797.53;;;-9.67;66.60
55347;BME280;41218;55.700;38.270;2022-12-07T16:44:36;100795.88;;;-9.68;66.29
55347;BME280;41218;55.700;38.270;2022-12-07T16:49:37;100780.69;;;-9.74;66.23
55347;BME280;41218;55.700;38.270;2022-12-07T16:54:37;100786.22;;;-9.69;66.34
55347;BME280;41218;55.700;38.270;2022-12-07T16:59:38;100764.84;;;-9.82;66.25
55347;BME280;41218;55.700;38.270;2022-12-07T17:04:38;100777.59;;;-9.71;66.27
55347;BME280;41218;55.700;38.270;2022-12-07T17:09:42;100775.13;;;-9.72;66.20
55347;BME280;41218;55.700;38.270;2022-12-07T17:14:42;100768.31;;;-9.68;66.29
55347;BME280;41218;55.700;38.270;2022-12-07T17:20:10;100759.47;;;-9.75;65.82
55347;BME280;41218;55.700;38.270;2022-12-07T17:25:10;100765.22;;;-9.72;66.69
55347;BME280;41218;55.700;38.270;2022-12-07T17:30:13;100757.41;;;-9.73;66.55
55347;BME280;41218;55.700;38.270;2022-12-07T17:35:14;100741.38;;;-9.80;66.25
55347;BME280;41218;55.700;38.270;2022-12-07T17:40:14;100741.97;;;-9.71;66.53
55347;BME280;41218;55.700;38.270;2022-12-07T17:45:15;100728.63;;;-9.78;66.19
55347;BME280;41218;55.700;38.270;2022-12-07T17:50:16;100734.78;;;-9.77;66.08
55347;BME280;41218;55.700;38.270;2022-12-07T17:55:37;100725.97;;;-9.84;66.64
55347;BME280;41218;55.700;38.270;2022-12-07T18:00:37;100738.91;;;-9.75;66.74
55347;BME280;41218;55.700;38.270;2022-12-07T18:05:42;100728.81;;;-9.73;66.82
55347;BME280;41218;55.700;38.270;2022-12-07T18:10:43;100724.09;;;-9.77;66.34
55347;BME280;41218;55.700;38.270;2022-12-07T18:15:43;100732.50;;;-9.74;66.54
55347;BME280;41218;55.700;38.270;2022-12-07T18:20:44;100732.72;;;-9.75;66.67
55347;BME280;41218;55.700;38.270;2022-12-07T18:25:47;100733.56;;;-9.75;66.98
55347;BME280;41218;55.700;38.270;2022-12-07T18:30:48;100728.63;;;-9.78;66.97
55347;BME280;41218;55.700;38.270;2022-12-07T18:35:51;100715.25;;;-9.78;66.60
55347;BME280;41218;55.700;38.270;2022-12-07T18:40:52;100715.66;;;-9.74;66.82
55347;BME280;41218;55.700;38.270;2022-12-07T18:45:53;100702.88;;;-9.72;66.82
55347;BME280;41218;55.700;38.270;2022-12-07T18:51:01;100702.06;;;-9.73;66.67
55347;BME280;41218;55.700;38.270;2022-12-07T19:01:05;100687.69;;;-9.78;66.76
55347;BME280;41218;55.700;38.270;2022-12-07T19:06:06;100686.63;;;-9.71;66.83
55347;BME280;41218;55.700;38.270;2022-12-07T19:11:06;100668.34;;;-9.80;66.63
55347;BME280;41218;55.700;38.270;2022-12-07T19:16:27;100678.19;;;-9.74;66.58
55347;BME280;41218;55.700;38.270;2022-12-07T19:21:27;100676.31;;;-9.74;66.72
55347;BME280;41218;55.700;38.270;2022-12-07T19:26:27;100664.63;;;-9.79;66.55
55347;BME280;41218;55.700;38.270;2022-12-07T19:31:28;100669.34;;;-9.75;66.64
55347;BME280;41218;55.700;38.270;2022-12-07T19:36:28;100667.28;;;-9.79;66.72
55347;BME280;41218;55.700;38.270;2022-12-07T19:41:29;100652.69;;;-9.83;67.09
55347;BME280;41218;55.700;38.270;2022-12-07T19:46:37;100665.22;;;-9.77;66.86
55347;BME280;41218;55.700;38.270;2022-12-07T19:51:38;100661.34;;;-9.81;66.99
55347;BME280;41218;55.700;38.270;2022-12-07T19:56:39;100670.97;;;-9.74;66.88
55347;BME280;41218;55.700;38.270;2022-12-07T20:01:40;100681.50;;;-9.79;66.82
55347;BME280;41218;55.700;38.270;2022-12-07T20:06:42;100667.53;;;-9.81;67.25
55347;BME280;41218;55.700;38.270;2022-12-07T20:11:43;100681.72;;;-9.80;66.98
55347;BME280;41218;55.700;38.270;2022-12-07T20:17:02;100673.69;;;-9.80;67.10
55347;BME280;41218;55.700;38.270;2022-12-07T20:22:03;100676.97;;;-9.78;67.06
55347;BME280;41218;55.700;38.270;2022-12-07T20:27:04;100685.00;;;-9.78;66.98
55347;BME280;41218;55.700;38.270;2022-12-07T20:32:05;100686.41;;;-9.76;67.20
55347;BME280;41218;55.700;38.270;2022-12-07T20:37:05;100691.78;;;-9.76;66.79
55347;BME280;41218;55.700;38.270;2022-12-07T20:42:06;100670.63;;;-9.84;66.66
55347;BME280;41218;55.700;38.270;2022-12-07T20:47:25;100664.00;;;-9.81;67.30
55347;BME280;41218;55.700;38.270;2022-12-07T20:52:25;100666.88;;;-9.76;67.20
55347;BME280;41218;55.700;38.270;2022-12-07T20:57:26;100672.63;;;-9.79;66.90
55347;BME280;41218;55.700;38.270;2022-12-07T21:02:26;100667.53;;;-9.81;67.01
55347;BME280;41218;55.700;38.270;2022-12-07T21:07:27;100645.53;;;-9.90;67.09
55347;BME280;41218;55.700;38.270;2022-12-07T21:12:27;100650.25;;;-9.85;67.25
55347;BME280;41218;55.700;38.270;2022-12-07T21:17:28;100646.34;;;-9.82;67.39
55347;BME280;41218;55.700;38.270;2022-12-07T21:22:31;100635.03;;;-9.84;67.03
55347;BME280;41218;55.700;38.270;2022-12-07T21:27:32;100646.13;;;-9.88;66.86
55347;BME280;41218;55.700;38.270;2022-12-07T21:32:33;100643.47;;;-9.88;67.17
55347;BME280;41218;55.700;38.270;2022-12-07T21:37:34;100640.19;;;-9.90;66.74
55347;BME280;41218;55.700;38.270;2022-12-07T21:42:34;100641.84;;;-9.89;67.27
55347;BME280;41218;55.700;38.270;2022-12-07T21:47:34;100653.97;;;-9.86;67.23
55347;BME280;41218;55.700;38.270;2022-12-07T21:52:35;100641.41;;;-9.85;66.89
55347;BME280;41218;55.700;38.270;2022-12-07T21:57:35;100642.84;;;-9.83;67.08
55347;BME280;41218;55.700;38.270;2022-12-07T22:02:36;100626.56;;;-9.81;67.04
55347;BME280;41218;55.700;38.270;2022-12-07T22:07:36;100611.38;;;-9.88;67.42
55347;BME280;41218;55.700;38.270;2022-12-07T22:12:37;100633.09;;;-9.71;67.30
55347;BME280;41218;55.700;38.270;2022-12-07T22:17:37;100622.00;;;-9.74;67.17
55347;BME280;41218;55.700;38.270;2022-12-07T22:22:38;100635.34;;;-9.68;67.26
55347;BME280;41218;55.700;38.270;2022-12-07T22:27:39;100629.56;;;-9.64;67.10
55347;BME280;41218;55.700;38.270;2022-12-07T22:32:39;100627.50;;;-9.62;66.93
55347;BME280;41218;55.700;38.270;2022-12-07T22:37:40;100633.25;;;-9.59;67.40
55347;BME280;41218;55.700;38.270;2022-12-07T22:42:40;100629.31;;;-9.56;67.42
55347;BME280;41218;55.700;38.270;2022-12-07T22:47:41;100626.44;;;-9.55;67.61
55347;BME280;41218;55.700;38.270;2022-12-07T22:52:41;100619.81;;;-9.52;67.13
55347;BME280;41218;55.700;38.270;2022-12-07T22:57:41;100612.38;;;-9.50;67.77
55347;BME280;41218;55.700;38.270;2022-12-07T23:02:42;100597.34;;;-9.51;66.65
55347;BME280;41218;55.700;38.270;2022-12-07T23:07:43;100592.41;;;-9.48;67.31
55347;BME280;41218;55.700;38.270;2022-12-07T23:12:43;100590.09;;;-9.44;67.21
55347;BME280;41218;55.700;38.270;2022-12-07T23:18:03;100581.88;;;-9.42;67.55
55347;BME280;41218;55.700;38.270;2022-12-07T23:23:03;100569.28;;;-9.42;67.45
55347;BME280;41218;55.700;38.270;2022-12-07T23:28:04;100556.34;;;-9.45;67.36
55347;BME280;41218;55.700;38.270;2022-12-07T23:33:04;100571.31;;;-9.37;67.82
55347;BME280;41218;55.700;38.270;2022-12-07T23:38:05;100554.44;;;-9.38;67.55
55347;BME280;41218;55.700;38.270;2022-12-07T23:43:05;100562.00;;;-9.35;67.46
55347;BME280;41218;55.700;38.270;2022-12-07T23:48:06;100545.41;;;-9.43;67.61
55347;BME280;41218;55.700;38.270;2022-12-07T23:53:06;100563.81;;;-9.29;67.58
55347;BME280;41218;55.700;38.270;2022-12-07T23:58:07;100552.50;;;-9.31;67.35
